createdAt,value
2019-05-14T00:01:42.272Z,1.70
2019-05-14T00:04:11.621Z,1.50
2019-05-14T00:06:41.843Z,1.50
2019-05-14T00:09:12.165Z,1.40
2019-05-14T00:11:42.102Z,1.70
2019-05-14T00:14:11.716Z,1.97
2019-05-14T00:16:42.365Z,2.10
2019-05-14T00:19:11.563Z,1.50
2019-05-14T00:21:42.417Z,1.77
2019-05-14T00:24:11.512Z,1.63
2019-05-14T00:26:42.690Z,1.50
2019-05-14T00:29:11.567Z,1.90
2019-05-14T00:31:42.416Z,1.70
2019-05-14T00:34:11.356Z,1.60
2019-05-14T00:36:41.732Z,1.90
2019-05-14T00:39:11.353Z,1.47
2019-05-14T00:41:42.053Z,1.47
2019-05-14T00:44:13.344Z,1.53
2019-05-14T00:46:41.806Z,1.47
2019-05-14T00:49:11.858Z,1.60
2019-05-14T00:51:41.364Z,1.73
2019-05-14T00:54:11.228Z,1.30
2019-05-14T00:56:41.712Z,1.47
2019-05-14T00:59:11.443Z,1.40
2019-05-14T01:01:42.558Z,1.70
2019-05-14T01:04:11.835Z,1.20
2019-05-14T01:06:42.076Z,1.40
2019-05-14T01:09:11.527Z,1.70
2019-05-14T01:11:41.991Z,1.50
2019-05-14T01:14:12.225Z,1.43
2019-05-14T01:16:42.480Z,1.47
2019-05-14T01:19:12.425Z,1.53
2019-05-14T01:21:41.816Z,1.77
2019-05-14T01:24:12.589Z,2.03
2019-05-14T01:26:41.790Z,1.70
2019-05-14T01:29:11.904Z,2.40
2019-05-14T01:31:41.734Z,1.77
2019-05-14T01:34:11.287Z,2.70
2019-05-14T01:36:41.473Z,2.10
2019-05-14T01:39:12.148Z,1.77
2019-05-14T01:41:42.259Z,2.30
2019-05-14T01:44:12.064Z,2.13
2019-05-14T01:46:42.068Z,2.10
2019-05-14T01:49:12.119Z,1.60
2019-05-14T01:51:42.306Z,1.90
2019-05-14T01:54:11.917Z,1.87
2019-05-14T01:56:42.370Z,1.60
2019-05-14T01:59:12.093Z,2.00
2019-05-14T02:01:41.714Z,2.00
2019-05-14T02:04:11.641Z,2.20
2019-05-14T02:06:41.452Z,1.90
2019-05-14T02:09:11.130Z,2.13
2019-05-14T02:11:41.490Z,1.77
2019-05-14T02:14:11.620Z,1.57
2019-05-14T02:16:42.260Z,2.07
2019-05-14T02:19:11.722Z,2.17
2019-05-14T02:21:42.492Z,1.60
2019-05-14T02:24:11.508Z,1.60
2019-05-14T02:26:42.446Z,2.10
2019-05-14T02:29:12.465Z,2.00
2019-05-14T02:31:41.706Z,1.70
2019-05-14T02:34:10.699Z,2.10
2019-05-14T02:36:40.187Z,2.07
2019-05-14T02:39:10.371Z,1.77
2019-05-14T02:41:39.606Z,2.00
2019-05-14T02:44:09.904Z,1.60
2019-05-14T02:46:40.535Z,2.03
2019-05-14T02:49:10.686Z,1.97
2019-05-14T02:51:39.743Z,2.30
2019-05-14T02:54:09.860Z,1.87
2019-05-14T02:56:40.294Z,1.80
2019-05-14T02:59:10.084Z,1.47
2019-05-14T03:01:40.404Z,1.60
2019-05-14T03:04:10.277Z,1.90
2019-05-14T03:06:39.690Z,2.00
2019-05-14T03:09:09.613Z,1.87
2019-05-14T03:11:40.342Z,1.90
2019-05-14T03:14:09.723Z,1.97
2019-05-14T03:16:40.259Z,1.97
2019-05-14T03:19:10.119Z,2.00
2019-05-14T03:21:39.724Z,1.97
2019-05-14T03:24:09.613Z,1.80
2019-05-14T03:26:39.780Z,1.90
2019-05-14T03:29:10.071Z,2.40
2019-05-14T03:31:42.473Z,2.10
2019-05-14T03:34:13.346Z,1.93
2019-05-14T03:36:42.870Z,1.97
2019-05-14T03:39:12.059Z,2.03
2019-05-14T03:41:41.114Z,2.27
2019-05-14T03:44:10.273Z,1.93
2019-05-14T03:46:49.762Z,2.00
2019-05-14T03:49:10.249Z,1.97
2019-05-14T03:51:39.569Z,1.63
2019-05-14T03:54:12.716Z,2.00
2019-05-14T03:56:39.776Z,2.30
2019-05-14T03:59:09.786Z,2.30
2019-05-14T04:01:40.256Z,2.47
2019-05-14T04:04:10.418Z,2.13
2019-05-14T04:06:41.775Z,2.57
2019-05-14T04:09:13.695Z,2.20
2019-05-14T04:11:45.064Z,2.53
2019-05-14T04:14:19.848Z,2.03
2019-05-14T04:17:01.592Z,2.50
2019-05-14T04:19:24.130Z,2.57
2019-05-14T04:21:55.384Z,2.23
2019-05-14T04:24:29.529Z,2.00
2019-05-14T04:27:07.308Z,1.97
2019-05-14T04:29:34.031Z,1.80
2019-05-14T04:32:04.238Z,2.10
2019-05-14T04:34:33.627Z,2.27
2019-05-14T04:37:02.777Z,2.07
2019-05-14T04:39:31.852Z,2.30
2019-05-14T04:42:00.802Z,2.03
2019-05-14T04:44:30.104Z,2.30
2019-05-14T04:47:00.134Z,2.37
2019-05-14T04:49:30.091Z,2.40
2019-05-14T04:51:59.675Z,2.63
2019-05-14T04:54:30.163Z,2.40
2019-05-14T04:57:00.142Z,2.60
2019-05-14T04:59:30.178Z,2.60
2019-05-14T05:02:00.219Z,2.47
2019-05-14T05:04:30.017Z,2.57
2019-05-14T05:06:59.524Z,2.50
2019-05-14T05:09:29.417Z,2.70
2019-05-14T05:11:59.785Z,2.50
2019-05-14T05:14:29.682Z,2.87
2019-05-14T05:16:59.735Z,2.53
2019-05-14T05:19:29.273Z,2.40
2019-05-14T05:21:58.777Z,2.63
2019-05-14T05:24:28.751Z,3.03
2019-05-14T05:26:58.571Z,3.20
2019-05-14T05:29:28.573Z,3.23
2019-05-14T05:31:59.290Z,3.87
2019-05-14T05:34:28.587Z,3.13
2019-05-14T05:36:59.182Z,4.23
2019-05-14T05:39:28.409Z,4.63
2019-05-14T05:41:58.561Z,4.67
2019-05-14T05:44:28.778Z,5.90
2019-05-14T05:46:59.689Z,5.33
2019-05-14T05:49:29.208Z,5.00
2019-05-14T05:51:59.150Z,5.07
2019-05-14T05:54:29.161Z,4.60
2019-05-14T05:56:58.586Z,5.30
2019-05-14T05:59:29.344Z,5.03
2019-05-14T06:01:58.795Z,5.00
2019-05-14T06:04:29.046Z,5.10
2019-05-14T06:06:59.041Z,5.33
2019-05-14T06:09:28.872Z,5.50
2019-05-14T06:11:59.192Z,5.07
2019-05-14T06:14:29.157Z,6.23
2019-05-14T06:16:59.081Z,5.23
2019-05-14T06:19:28.998Z,5.23
2019-05-14T06:21:59.637Z,5.30
2019-05-14T06:24:28.886Z,5.07
2019-05-14T06:26:58.647Z,4.93
2019-05-14T06:29:29.009Z,4.70
2019-05-14T06:31:58.881Z,5.00
2019-05-14T06:34:29.115Z,5.67
2019-05-14T06:36:59.157Z,5.20
2019-05-14T06:39:28.681Z,5.03
2019-05-14T06:41:58.554Z,5.27
2019-05-14T06:44:29.441Z,5.37
2019-05-14T06:46:59.070Z,5.40
2019-05-14T06:49:28.985Z,5.33
2019-05-14T06:51:59.337Z,5.13
2019-05-14T06:54:29.264Z,5.43
2019-05-14T06:56:58.469Z,5.40
2019-05-14T06:59:28.754Z,5.30
2019-05-14T07:01:58.210Z,4.73
2019-05-14T07:04:28.898Z,4.57
2019-05-14T07:06:59.025Z,5.20
2019-05-14T07:09:28.973Z,4.40
2019-05-14T07:11:58.639Z,4.63
2019-05-14T07:14:28.282Z,4.90
2019-05-14T07:16:58.823Z,4.97
2019-05-14T07:19:29.372Z,4.80
2019-05-14T07:21:58.970Z,4.80
2019-05-14T07:24:28.418Z,4.73
2019-05-14T07:26:58.535Z,5.03
2019-05-14T07:29:29.303Z,5.20
2019-05-14T07:31:58.529Z,4.40
2019-05-14T07:34:28.349Z,4.60
2019-05-14T07:36:58.692Z,4.30
2019-05-14T07:39:29.071Z,4.60
2019-05-14T07:41:59.101Z,3.80
2019-05-14T07:44:29.669Z,3.40
2019-05-14T07:46:59.082Z,3.53
2019-05-14T07:49:29.029Z,3.87
2019-05-14T07:51:58.707Z,3.33
2019-05-14T07:54:28.320Z,3.40
2019-05-14T07:56:59.012Z,2.90
2019-05-14T07:59:28.865Z,3.40
2019-05-14T08:01:58.656Z,3.10
2019-05-14T08:04:28.943Z,3.00
2019-05-14T08:06:58.352Z,3.57
2019-05-14T08:09:28.268Z,3.50
2019-05-14T08:11:58.731Z,3.20
2019-05-14T08:14:29.463Z,7.20
2019-05-14T08:16:59.490Z,2.03
2019-05-14T08:19:31.448Z,2.00
2019-05-14T08:21:59.394Z,2.10
2019-05-14T08:24:30.026Z,1.90
2019-05-14T08:26:59.226Z,2.17
2019-05-14T08:29:28.646Z,1.97
2019-05-14T08:31:58.262Z,1.57
2019-05-14T08:34:29.440Z,1.33
2019-05-14T08:36:58.870Z,1.57
2019-05-14T08:39:28.561Z,1.73
2019-05-14T08:42:03.535Z,1.93
2019-05-14T08:44:29.361Z,2.23
2019-05-14T08:46:59.149Z,1.93
2019-05-14T08:49:39.057Z,2.07
2019-05-14T08:51:59.526Z,2.20
2019-05-14T08:54:28.818Z,1.80
2019-05-14T08:56:58.391Z,2.00
2019-05-14T08:59:28.656Z,1.80
2019-05-14T09:02:05.828Z,1.97
2019-05-14T09:04:30.168Z,1.80
2019-05-14T09:06:59.055Z,1.67
2019-05-14T09:09:29.034Z,1.83
2019-05-14T09:11:59.976Z,2.20
2019-05-14T09:14:29.023Z,1.77
2019-05-14T09:16:59.958Z,1.50
2019-05-14T09:19:28.852Z,1.60
2019-05-14T09:21:58.927Z,1.87
2019-05-14T09:24:29.236Z,1.70
2019-05-14T09:26:59.253Z,1.97
2019-05-14T09:29:29.919Z,1.40
2019-05-14T09:31:59.421Z,1.53
2019-05-14T09:34:29.137Z,1.40
2019-05-14T09:36:59.340Z,1.80
2019-05-14T09:39:29.101Z,1.50
2019-05-14T09:41:58.346Z,1.13
2019-05-14T09:44:29.287Z,1.60
2019-05-14T09:46:59.385Z,1.50
2019-05-14T09:49:29.810Z,1.40
2019-05-14T09:51:58.838Z,1.67
2019-05-14T09:54:28.677Z,2.43
2019-05-14T09:56:59.142Z,2.23
2019-05-14T09:59:28.410Z,1.60
2019-05-14T10:01:58.620Z,2.10
2019-05-14T10:04:27.857Z,1.70
2019-05-14T10:06:59.075Z,1.50
2019-05-14T10:09:28.977Z,1.70
2019-05-14T10:11:58.339Z,1.40
2019-05-14T10:14:29.616Z,1.60
2019-05-14T10:16:58.359Z,1.63
2019-05-14T10:19:29.676Z,1.90
2019-05-14T10:21:58.852Z,1.67
2019-05-14T10:24:29.090Z,1.60
2019-05-14T10:26:58.625Z,1.40
2019-05-14T10:29:28.582Z,1.30
2019-05-14T10:31:59.262Z,1.50
2019-05-14T10:34:28.806Z,1.70
2019-05-14T10:36:59.027Z,1.50
2019-05-14T10:39:29.906Z,1.30
2019-05-14T10:41:59.358Z,1.40
2019-05-14T10:44:29.206Z,1.40
2019-05-14T10:46:58.575Z,1.30
2019-05-14T10:49:29.971Z,1.30
2019-05-14T10:51:58.625Z,1.57
2019-05-14T10:54:29.216Z,1.40
2019-05-14T10:56:59.325Z,1.63
2019-05-14T10:59:29.357Z,1.60
2019-05-14T11:01:58.720Z,1.80
2019-05-14T11:04:28.750Z,1.13
2019-05-14T11:06:57.836Z,1.83
2019-05-14T11:09:28.577Z,1.30
2019-05-14T11:11:58.379Z,1.20
2019-05-14T11:14:31.808Z,1.30
2019-05-14T11:16:59.221Z,1.10
2019-05-14T11:19:28.312Z,1.10
2019-05-14T11:21:57.967Z,0.90
2019-05-14T11:24:29.521Z,0.97
2019-05-14T11:26:59.076Z,1.30
2019-05-14T11:29:29.504Z,1.43
2019-05-14T11:31:58.913Z,1.10
2019-05-14T11:34:28.743Z,0.90
2019-05-14T11:36:59.036Z,1.20
2019-05-14T11:39:28.915Z,1.27
2019-05-14T11:41:59.085Z,1.43
2019-05-14T11:44:28.706Z,1.20
2019-05-14T11:47:02.198Z,1.30
2019-05-14T11:49:28.439Z,1.27
2019-05-14T11:52:07.325Z,1.17
2019-05-14T11:54:29.202Z,1.33
2019-05-14T11:56:58.929Z,0.83
2019-05-14T11:59:28.539Z,7.90
2019-05-14T12:01:59.355Z,1.80
2019-05-14T12:04:28.530Z,1.20
2019-05-14T12:06:59.066Z,1.43
2019-05-14T12:09:28.502Z,0.87
2019-05-14T12:11:58.684Z,0.90
2019-05-14T12:14:27.893Z,1.27
2019-05-14T12:16:59.720Z,1.10
2019-05-14T12:19:28.331Z,1.50
2019-05-14T12:22:06.569Z,1.47
2019-05-14T12:24:29.136Z,1.30
2019-05-14T12:26:58.670Z,1.10
2019-05-14T12:29:29.166Z,1.10
2019-05-14T12:31:58.694Z,1.30
2019-05-14T12:34:29.478Z,1.20
2019-05-14T12:36:58.731Z,0.80
2019-05-14T12:39:29.408Z,1.80
2019-05-14T12:41:58.697Z,1.20
2019-05-14T12:44:29.073Z,0.90
2019-05-14T12:46:58.785Z,1.00
2019-05-14T12:49:27.938Z,1.00
2019-05-14T12:51:59.208Z,1.20
2019-05-14T12:54:46.879Z,0.83
2019-05-14T12:57:18.793Z,0.97
2019-05-14T12:59:48.585Z,1.80
2019-05-14T13:02:18.717Z,2.27
2019-05-14T13:04:48.651Z,1.10
2019-05-14T13:07:19.213Z,1.00
2019-05-14T13:09:49.014Z,1.10
2019-05-14T13:12:19.136Z,0.93
2019-05-14T13:14:48.909Z,1.23
2019-05-14T13:17:18.701Z,1.30
2019-05-14T13:19:48.743Z,1.33
2019-05-14T13:22:25.650Z,1.03
2019-05-14T13:24:49.290Z,1.20
2019-05-14T13:27:19.075Z,0.90
2019-05-14T13:29:48.929Z,0.80
2019-05-14T13:32:19.601Z,1.40
2019-05-14T13:34:48.840Z,1.33
2019-05-14T13:37:17.786Z,1.10
2019-05-14T13:39:52.717Z,3.73
2019-05-14T13:42:18.696Z,1.00
2019-05-14T13:44:47.897Z,1.17
2019-05-14T13:47:18.250Z,1.00
2019-05-14T13:49:48.722Z,0.90
2019-05-14T13:52:18.844Z,1.70
2019-05-14T13:54:48.076Z,1.30
2019-05-14T13:57:19.427Z,0.80
2019-05-14T13:59:49.349Z,1.10
2019-05-14T14:02:19.043Z,0.80
2019-05-14T14:04:48.342Z,1.00
2019-05-14T14:07:18.968Z,1.00
2019-05-14T14:09:49.875Z,1.00
2019-05-14T14:12:18.739Z,0.80
2019-05-14T14:14:49.317Z,1.30
2019-05-14T14:17:18.675Z,1.30
2019-05-14T14:19:48.240Z,1.00
2019-05-14T14:22:19.403Z,1.40
2019-05-14T14:24:48.777Z,1.20
2019-05-14T14:27:19.584Z,1.07
2019-05-14T14:29:49.463Z,1.10
2019-05-14T14:32:19.044Z,1.33
2019-05-14T14:34:48.346Z,1.23
2019-05-14T14:37:19.251Z,1.00
2019-05-14T14:39:48.836Z,1.20
2019-05-14T14:42:19.548Z,1.23
2019-05-14T14:44:48.696Z,1.33
2019-05-14T14:47:19.039Z,0.97
2019-05-14T14:49:51.980Z,1.20
2019-05-14T14:52:19.966Z,1.17
2019-05-14T14:54:49.230Z,1.13
2019-05-14T14:57:19.879Z,1.20
2019-05-14T14:59:48.885Z,1.30
2019-05-14T15:02:19.669Z,1.20
2019-05-14T15:04:49.924Z,1.40
2019-05-14T15:07:19.181Z,0.80
2019-05-14T15:09:48.771Z,1.10
2019-05-14T15:12:19.940Z,2.27
2019-05-14T15:14:48.887Z,1.33
2019-05-14T15:17:18.667Z,1.20
2019-05-14T15:19:49.944Z,1.10
2019-05-14T15:22:20.983Z,1.00
2019-05-14T15:24:49.180Z,1.10
2019-05-14T15:27:18.867Z,0.90
2019-05-14T15:29:48.875Z,0.70
2019-05-14T15:32:19.728Z,1.17
2019-05-14T15:34:50.589Z,1.17
2019-05-14T15:37:19.419Z,1.30
2019-05-14T15:39:49.083Z,0.70
2019-05-14T15:42:19.264Z,0.83
2019-05-14T15:44:55.661Z,1.20
2019-05-14T15:47:19.215Z,1.00
2019-05-14T15:49:49.771Z,1.20
2019-05-14T15:52:19.440Z,1.00
2019-05-14T15:54:50.628Z,1.10
2019-05-14T15:57:19.527Z,0.90
2019-05-14T15:59:48.516Z,0.97
2019-05-14T16:02:20.157Z,0.90
2019-05-14T16:04:48.211Z,0.80
2019-05-14T16:07:18.627Z,0.90
2019-05-14T16:09:49.381Z,0.73
2019-05-14T16:12:19.708Z,1.03
2019-05-14T16:14:49.640Z,0.90
2019-05-14T16:17:25.113Z,1.20
2019-05-14T16:19:49.556Z,1.00
2019-05-14T16:22:19.527Z,1.20
2019-05-14T16:24:56.578Z,1.10
2019-05-14T16:27:19.797Z,1.00
2019-05-14T16:29:49.018Z,1.80
2019-05-14T16:32:18.046Z,0.90
2019-05-14T16:34:48.880Z,1.50
2019-05-14T16:37:18.172Z,0.90
2019-05-14T16:39:48.794Z,0.97
2019-05-14T16:42:20.558Z,1.07
2019-05-14T16:44:48.724Z,1.17
2019-05-14T16:47:18.807Z,0.90
2019-05-14T16:49:48.295Z,0.80
2019-05-14T16:52:18.140Z,0.80
2019-05-14T16:54:48.804Z,0.90
2019-05-14T16:57:18.569Z,1.00
2019-05-14T16:59:49.668Z,0.90
2019-05-14T17:02:19.147Z,0.77
2019-05-14T17:04:48.487Z,0.80
2019-05-14T17:07:18.268Z,0.87
2019-05-14T17:09:49.278Z,0.80
2019-05-14T17:12:22.467Z,1.00
2019-05-14T17:14:48.818Z,1.00
2019-05-14T17:17:19.987Z,1.00
2019-05-14T17:19:48.524Z,0.83
2019-05-14T17:22:25.395Z,0.70
2019-05-14T17:24:49.071Z,0.70
2019-05-14T17:27:18.245Z,1.00
2019-05-14T17:29:48.484Z,0.80
2019-05-14T17:32:18.741Z,0.80
2019-05-14T17:34:49.067Z,0.90
2019-05-14T17:37:19.073Z,0.77
2019-05-14T17:39:48.984Z,0.80
2019-05-14T17:42:19.308Z,0.80
2019-05-14T17:44:48.416Z,0.90
2019-05-14T17:47:18.369Z,0.73
2019-05-14T17:49:48.528Z,0.80
2019-05-14T17:52:21.709Z,0.90
2019-05-14T17:54:51.265Z,0.70
2019-05-14T17:57:24.995Z,0.80
2019-05-14T17:59:50.911Z,0.80
2019-05-14T18:02:19.870Z,0.80
2019-05-14T18:04:48.954Z,0.70
2019-05-14T18:07:19.118Z,0.87
2019-05-14T18:09:48.522Z,0.70
2019-05-14T18:12:18.944Z,0.80
2019-05-14T18:14:48.428Z,0.80
2019-05-14T18:17:18.812Z,1.00
2019-05-14T18:19:48.457Z,0.70
2019-05-14T18:22:19.324Z,0.57
2019-05-14T18:24:48.717Z,0.60
2019-05-14T18:27:19.551Z,0.80
2019-05-14T18:29:48.895Z,0.80
2019-05-14T18:32:19.029Z,0.70
2019-05-14T18:34:48.610Z,0.80
2019-05-14T18:37:18.308Z,0.60
2019-05-14T18:39:48.331Z,0.70
2019-05-14T18:42:19.058Z,0.80
2019-05-14T18:44:49.803Z,0.73
2019-05-14T18:47:20.140Z,0.80
2019-05-14T18:49:49.247Z,1.00
2019-05-14T18:52:18.409Z,0.70
2019-05-14T18:54:48.448Z,0.80
2019-05-14T18:57:18.194Z,0.87
2019-05-14T18:59:49.281Z,0.53
2019-05-14T19:02:18.441Z,0.80
2019-05-14T19:04:48.452Z,0.70
2019-05-14T19:07:18.916Z,0.70
2019-05-14T19:09:49.445Z,0.90
2019-05-14T19:12:19.102Z,0.77
2019-05-14T19:14:49.284Z,0.63
2019-05-14T19:17:18.777Z,0.70
2019-05-14T19:19:48.209Z,0.70
2019-05-14T19:22:17.391Z,0.70
2019-05-14T19:24:46.323Z,0.80
2019-05-14T19:27:15.293Z,0.80
2019-05-14T19:29:44.214Z,0.67
2019-05-14T19:32:13.287Z,0.70
2019-05-14T19:34:42.215Z,0.63
2019-05-14T19:37:11.309Z,0.80
2019-05-14T19:39:40.246Z,0.80
2019-05-14T19:42:09.327Z,0.90
2019-05-14T19:44:40.285Z,0.87
2019-05-14T19:47:08.949Z,0.70
2019-05-14T19:49:38.388Z,0.97
2019-05-14T19:52:08.472Z,1.00
2019-05-14T19:54:38.408Z,0.80
2019-05-14T19:57:09.982Z,0.80
2019-05-14T19:59:38.403Z,1.03
2019-05-14T20:02:09.550Z,0.90
2019-05-14T20:04:38.208Z,1.20
2019-05-14T20:07:08.960Z,0.80
2019-05-14T20:09:38.775Z,0.73
2019-05-14T20:12:08.007Z,1.00
2019-05-14T20:14:38.236Z,0.70
2019-05-14T20:17:08.916Z,0.90
2019-05-14T20:19:39.591Z,1.00
2019-05-14T20:22:08.814Z,0.97
2019-05-14T20:24:41.204Z,1.00
2019-05-14T20:27:11.944Z,1.00
2019-05-14T20:29:39.200Z,1.10
2019-05-14T20:32:08.685Z,0.80
2019-05-14T20:34:37.828Z,0.90
2019-05-14T20:37:08.481Z,0.87
2019-05-14T20:39:39.114Z,0.87
2019-05-14T20:42:09.225Z,0.80
2019-05-14T20:44:38.775Z,0.90
2019-05-14T20:47:09.204Z,0.70
2019-05-14T20:49:38.367Z,0.90
2019-05-14T20:52:08.525Z,0.83
2019-05-14T20:54:37.902Z,0.63
2019-05-14T20:57:22.933Z,0.70
2019-05-14T20:59:38.909Z,0.90
2019-05-14T21:02:08.539Z,1.10
2019-05-14T21:04:37.658Z,0.90
2019-05-14T21:07:08.359Z,0.80
2019-05-14T21:09:38.632Z,0.70
2019-05-14T21:12:08.404Z,0.80
2019-05-14T21:14:41.073Z,0.93
2019-05-14T21:17:08.499Z,1.07
2019-05-14T21:19:38.014Z,1.00
2019-05-14T21:22:08.344Z,1.10
2019-05-14T21:24:39.224Z,1.10
2019-05-14T21:27:09.306Z,0.90
2019-05-14T21:29:38.535Z,0.77
2019-05-14T21:32:08.238Z,0.80
2019-05-14T21:34:38.159Z,1.10
2019-05-14T21:37:09.019Z,0.73
2019-05-14T21:39:40.843Z,1.03
2019-05-14T21:42:10.888Z,1.03
2019-05-14T21:44:39.422Z,0.90
2019-05-14T21:47:08.451Z,1.20
2019-05-14T21:49:39.058Z,0.93
2019-05-14T21:52:09.038Z,1.43
2019-05-14T21:54:39.582Z,1.00
2019-05-14T21:57:11.724Z,1.07
2019-05-14T21:59:39.591Z,0.80
2019-05-14T22:02:09.158Z,0.80
2019-05-14T22:04:38.596Z,1.10
2019-05-14T22:07:09.075Z,0.93
2019-05-14T22:09:41.143Z,0.83
2019-05-14T22:12:08.962Z,1.00
2019-05-14T22:15:04.485Z,1.23
2019-05-14T22:17:33.423Z,0.90
2019-05-14T22:20:02.411Z,0.80
2019-05-14T22:22:31.490Z,1.27
2019-05-14T22:25:00.414Z,0.90
2019-05-14T22:27:29.362Z,0.73
2019-05-14T22:30:02.927Z,0.90
2019-05-14T22:32:31.858Z,0.90
2019-05-14T22:35:00.782Z,1.00
2019-05-14T22:37:29.754Z,0.90
2019-05-14T22:39:59.098Z,0.90
2019-05-14T22:42:28.333Z,1.37
2019-05-14T22:44:58.342Z,0.97
2019-05-14T22:47:27.589Z,1.00
2019-05-14T22:49:59.163Z,0.90
2019-05-14T22:52:28.442Z,1.20
2019-05-14T22:54:58.634Z,1.07
2019-05-14T22:57:30.862Z,0.90
2019-05-14T22:59:58.511Z,1.20
2019-05-14T23:02:28.431Z,1.23
2019-05-14T23:04:58.545Z,1.03
2019-05-14T23:07:27.634Z,1.13
2019-05-14T23:09:58.939Z,0.73
2019-05-14T23:12:28.693Z,0.90
2019-05-14T23:14:58.193Z,1.20
2019-05-14T23:17:28.024Z,0.77
2019-05-14T23:19:58.039Z,0.90
2019-05-14T23:22:29.630Z,0.70
2019-05-14T23:24:59.224Z,0.87
2019-05-14T23:27:29.363Z,1.20
2019-05-14T23:29:58.784Z,0.90
2019-05-14T23:32:29.889Z,1.00
2019-05-14T23:34:58.998Z,1.00
2019-05-14T23:37:29.099Z,0.90
2019-05-14T23:39:59.747Z,1.10
2019-05-14T23:42:28.682Z,1.00
2019-05-14T23:44:58.547Z,1.00
2019-05-14T23:47:28.882Z,1.23
2019-05-14T23:49:58.457Z,1.00
2019-05-14T23:52:29.278Z,1.33
2019-05-14T23:54:58.138Z,1.27
2019-05-14T23:57:28.844Z,1.00
2019-05-14T23:59:58.030Z,1.13
